createdAt,value
2019-05-25T00:00:30.639Z,987.75
2019-05-25T00:01:30.568Z,987.75
2019-05-25T00:02:30.489Z,987.72
2019-05-25T00:03:30.413Z,987.72
2019-05-25T00:04:30.338Z,987.69
2019-05-25T00:05:30.267Z,987.70
2019-05-25T00:06:30.225Z,987.71
2019-05-25T00:07:30.112Z,987.69
2019-05-25T00:08:30.040Z,987.67
2019-05-25T00:09:29.962Z,987.67
2019-05-25T00:10:29.888Z,987.66
2019-05-25T00:11:29.811Z,987.65
2019-05-25T00:12:29.836Z,987.66
2019-05-25T00:13:29.668Z,987.62
2019-05-25T00:14:29.585Z,987.60
2019-05-25T00:15:29.514Z,987.61
2019-05-25T00:16:29.435Z,987.58
2019-05-25T00:17:29.361Z,987.60
2019-05-25T00:18:29.284Z,987.60
2019-05-25T00:19:29.211Z,987.60
2019-05-25T00:20:29.143Z,987.56
2019-05-25T00:21:29.062Z,987.59
2019-05-25T00:22:28.985Z,987.59
2019-05-25T00:23:28.911Z,987.57
2019-05-25T00:24:28.837Z,987.59
2019-05-25T00:25:28.761Z,987.62
2019-05-25T00:26:28.684Z,987.58
2019-05-25T00:27:28.609Z,987.65
2019-05-25T00:28:28.535Z,987.69
2019-05-25T00:29:28.530Z,987.68
2019-05-25T00:30:28.384Z,987.73
2019-05-25T00:31:28.317Z,987.77
2019-05-25T00:32:28.234Z,987.74
2019-05-25T00:33:28.160Z,987.78
2019-05-25T00:34:28.083Z,987.77
2019-05-25T00:35:28.009Z,987.79
2019-05-25T00:36:27.936Z,987.78
2019-05-25T00:37:27.859Z,987.81
2019-05-25T00:38:27.783Z,987.80
2019-05-25T00:39:27.722Z,987.81
2019-05-25T00:40:27.633Z,987.75
2019-05-25T00:41:27.559Z,987.78
2019-05-25T00:42:27.494Z,987.78
2019-05-25T00:43:27.409Z,987.74
2019-05-25T00:44:27.347Z,987.75
2019-05-25T00:45:27.259Z,987.77
2019-05-25T00:46:27.183Z,987.80
2019-05-25T00:47:27.107Z,987.79
2019-05-25T00:48:27.033Z,987.77
2019-05-25T00:49:26.959Z,987.81
2019-05-25T00:50:26.881Z,987.81
2019-05-25T00:51:26.807Z,987.77
2019-05-25T00:52:26.731Z,987.76
2019-05-25T00:53:26.656Z,987.76
2019-05-25T00:54:28.261Z,987.77
2019-05-25T00:55:26.504Z,987.76
2019-05-25T00:56:26.429Z,987.77
2019-05-25T00:57:26.354Z,987.80
2019-05-25T00:58:26.279Z,987.79
2019-05-25T00:59:26.207Z,987.78
2019-05-25T01:00:26.127Z,987.77
2019-05-25T01:01:26.053Z,987.80
2019-05-25T01:02:25.977Z,987.78
2019-05-25T01:03:25.903Z,987.79
2019-05-25T01:04:25.828Z,987.81
2019-05-25T01:05:25.752Z,987.77
2019-05-25T01:06:25.679Z,987.79
2019-05-25T01:07:25.602Z,987.77
2019-05-25T01:08:25.527Z,987.79
2019-05-25T01:09:25.451Z,987.78
2019-05-25T01:10:25.374Z,987.79
2019-05-25T01:11:25.405Z,987.82
2019-05-25T01:12:25.222Z,987.82
2019-05-25T01:13:25.150Z,987.83
2019-05-25T01:14:25.073Z,987.86
2019-05-25T01:15:24.999Z,987.84
2019-05-25T01:16:24.926Z,987.83
2019-05-25T01:17:24.848Z,987.86
2019-05-25T01:18:24.778Z,987.83
2019-05-25T01:19:24.698Z,987.82
2019-05-25T01:20:24.621Z,987.82
2019-05-25T01:21:24.545Z,987.83
2019-05-25T01:22:24.470Z,987.87
2019-05-25T01:23:24.395Z,987.87
2019-05-25T01:24:24.320Z,987.86
2019-05-25T01:25:24.245Z,987.85
2019-05-25T01:26:24.169Z,987.86
2019-05-25T01:27:24.094Z,987.83
2019-05-25T01:28:24.020Z,987.84
2019-05-25T01:29:23.944Z,987.82
2019-05-25T01:30:23.867Z,987.84
2019-05-25T01:31:23.793Z,987.85
2019-05-25T01:32:23.831Z,987.83
2019-05-25T01:33:23.643Z,987.82
2019-05-25T01:34:23.566Z,987.81
2019-05-25T01:35:23.491Z,987.82
2019-05-25T01:36:23.416Z,987.78
2019-05-25T01:37:23.358Z,987.77
2019-05-25T01:38:23.265Z,987.79
2019-05-25T01:39:23.189Z,987.79
2019-05-25T01:40:23.114Z,987.81
2019-05-25T01:41:23.041Z,987.79
2019-05-25T01:42:22.964Z,987.79
2019-05-25T01:43:22.889Z,987.80
2019-05-25T01:44:22.812Z,987.81
2019-05-25T01:45:22.737Z,987.80
2019-05-25T01:46:22.662Z,987.84
2019-05-25T01:47:22.587Z,987.83
2019-05-25T01:48:22.513Z,987.82
2019-05-25T01:49:22.436Z,987.83
2019-05-25T01:50:22.363Z,987.83
2019-05-25T01:51:22.285Z,987.85
2019-05-25T01:52:22.210Z,987.84
2019-05-25T01:53:22.237Z,987.81
2019-05-25T01:54:22.064Z,987.84
2019-05-25T01:55:21.984Z,987.81
2019-05-25T01:56:21.911Z,987.82
2019-05-25T01:57:21.834Z,987.82
2019-05-25T01:58:21.859Z,987.77
2019-05-25T01:59:21.685Z,987.79
2019-05-25T02:00:21.610Z,987.81
2019-05-25T02:01:21.536Z,987.82
2019-05-25T02:02:21.459Z,987.82
2019-05-25T02:03:21.499Z,987.83
2019-05-25T02:04:21.309Z,987.82
2019-05-25T02:05:21.235Z,987.81
2019-05-25T02:06:21.159Z,987.78
2019-05-25T02:07:21.084Z,987.79
2019-05-25T02:08:21.010Z,987.78
2019-05-25T02:09:20.934Z,987.77
2019-05-25T02:10:20.857Z,987.78
2019-05-25T02:11:20.783Z,987.80
2019-05-25T02:12:20.714Z,987.80
2019-05-25T02:13:20.634Z,987.76
2019-05-25T02:14:20.559Z,987.80
2019-05-25T02:15:20.482Z,987.79
2019-05-25T02:16:20.417Z,987.77
2019-05-25T02:17:20.333Z,987.81
2019-05-25T02:18:20.258Z,987.79
2019-05-25T02:19:20.183Z,987.79
2019-05-25T02:20:20.115Z,987.80
2019-05-25T02:21:20.037Z,987.81
2019-05-25T02:22:19.959Z,987.79
2019-05-25T02:23:19.884Z,987.78
2019-05-25T02:24:19.809Z,987.78
2019-05-25T02:25:19.734Z,987.79
2019-05-25T02:26:19.660Z,987.74
2019-05-25T02:27:19.583Z,987.74
2019-05-25T02:28:19.511Z,987.75
2019-05-25T02:29:19.484Z,987.81
2019-05-25T02:30:19.429Z,987.78
2019-05-25T02:31:19.289Z,987.87
2019-05-25T02:32:19.208Z,987.89
2019-05-25T02:33:19.135Z,987.91
2019-05-25T02:34:19.078Z,987.98
2019-05-25T02:35:19.083Z,987.95
2019-05-25T02:36:20.749Z,987.96
2019-05-25T02:37:18.835Z,987.94
2019-05-25T02:38:18.760Z,987.98
2019-05-25T02:39:18.686Z,987.95
2019-05-25T02:40:18.611Z,987.92
2019-05-25T02:41:18.535Z,987.92
2019-05-25T02:42:18.458Z,987.91
2019-05-25T02:43:18.385Z,987.92
2019-05-25T02:44:18.310Z,987.95
2019-05-25T02:45:18.237Z,987.93
2019-05-25T02:46:18.181Z,987.94
2019-05-25T02:47:18.099Z,987.95
2019-05-25T02:48:18.054Z,987.96
2019-05-25T02:49:17.934Z,987.96
2019-05-25T02:50:17.865Z,987.92
2019-05-25T02:51:17.783Z,987.91
2019-05-25T02:52:17.738Z,987.89
2019-05-25T02:53:17.632Z,987.88
2019-05-25T02:54:17.557Z,987.91
2019-05-25T02:55:32.961Z,987.87
2019-05-25T02:56:17.408Z,987.88
2019-05-25T02:57:17.333Z,987.84
2019-05-25T02:58:17.255Z,987.81
2019-05-25T02:59:17.180Z,987.78
2019-05-25T03:00:17.105Z,987.73
2019-05-25T03:01:17.032Z,987.71
2019-05-25T03:02:16.954Z,987.69
2019-05-25T03:03:16.881Z,987.69
2019-05-25T03:04:16.802Z,987.69
2019-05-25T03:05:16.731Z,987.73
2019-05-25T03:06:16.705Z,987.75
2019-05-25T03:07:16.577Z,987.70
2019-05-25T03:08:16.501Z,987.66
2019-05-25T03:09:16.427Z,987.62
2019-05-25T03:10:16.353Z,987.68
2019-05-25T03:11:16.278Z,987.65
2019-05-25T03:12:16.203Z,987.64
2019-05-25T03:13:16.126Z,987.64
2019-05-25T03:14:16.052Z,987.64
2019-05-25T03:15:15.980Z,987.66
2019-05-25T03:16:15.903Z,987.68
2019-05-25T03:17:15.824Z,987.74
2019-05-25T03:18:15.748Z,987.78
2019-05-25T03:19:15.674Z,987.87
2019-05-25T03:20:15.599Z,987.93
2019-05-25T03:21:15.523Z,987.96
2019-05-25T03:22:15.451Z,988.00
2019-05-25T03:23:15.379Z,988.03
2019-05-25T03:24:15.298Z,988.00
2019-05-25T03:25:15.224Z,988.03
2019-05-25T03:26:15.149Z,988.02
2019-05-25T03:27:15.172Z,988.08
2019-05-25T03:28:15.004Z,988.10
2019-05-25T03:29:14.923Z,988.08
2019-05-25T03:30:14.852Z,988.07
2019-05-25T03:31:14.774Z,988.00
2019-05-25T03:32:14.697Z,987.96
2019-05-25T03:33:14.623Z,987.95
2019-05-25T03:34:14.548Z,987.98
2019-05-25T03:35:14.498Z,987.97
2019-05-25T03:36:14.403Z,988.00
2019-05-25T03:37:14.323Z,987.94
2019-05-25T03:38:14.252Z,987.95
2019-05-25T03:39:14.171Z,987.98
2019-05-25T03:40:14.096Z,987.94
2019-05-25T03:41:14.021Z,987.99
2019-05-25T03:42:13.946Z,987.96
2019-05-25T03:43:13.968Z,987.99
2019-05-25T03:44:13.794Z,987.99
2019-05-25T03:45:13.719Z,987.98
2019-05-25T03:46:13.644Z,987.95
2019-05-25T03:47:13.568Z,987.94
2019-05-25T03:48:13.492Z,987.92
2019-05-25T03:49:13.419Z,987.89
2019-05-25T03:50:13.342Z,987.95
2019-05-25T03:51:13.269Z,987.93
2019-05-25T03:52:13.191Z,987.87
2019-05-25T03:53:13.117Z,987.86
2019-05-25T03:54:13.141Z,987.78
2019-05-25T03:55:12.966Z,987.79
2019-05-25T03:56:12.891Z,987.79
2019-05-25T03:57:12.815Z,987.75
2019-05-25T03:58:12.739Z,987.66
2019-05-25T03:59:12.667Z,987.64
2019-05-25T04:00:12.590Z,987.70
2019-05-25T04:01:12.514Z,987.72
2019-05-25T04:02:12.438Z,987.75
2019-05-25T04:03:12.363Z,987.76
2019-05-25T04:04:12.288Z,987.80
2019-05-25T04:05:12.213Z,987.84
2019-05-25T04:06:12.139Z,987.83
2019-05-25T04:07:12.063Z,987.87
2019-05-25T04:08:11.991Z,987.86
2019-05-25T04:09:11.912Z,987.88
2019-05-25T04:10:11.836Z,987.92
2019-05-25T04:11:11.761Z,987.93
2019-05-25T04:12:11.685Z,987.94
2019-05-25T04:13:11.610Z,988.00
2019-05-25T04:14:11.535Z,988.02
2019-05-25T04:15:11.460Z,988.07
2019-05-25T04:16:11.385Z,988.06
2019-05-25T04:17:11.309Z,988.08
2019-05-25T04:18:11.233Z,988.06
2019-05-25T04:19:11.159Z,988.08
2019-05-25T04:20:11.082Z,988.09
2019-05-25T04:21:11.008Z,988.13
2019-05-25T04:22:10.933Z,988.14
2019-05-25T04:23:10.856Z,988.16
2019-05-25T04:24:10.781Z,988.17
2019-05-25T04:25:10.714Z,988.15
2019-05-25T04:26:21.905Z,988.16
2019-05-25T04:27:10.558Z,988.15
2019-05-25T04:28:10.486Z,988.20
2019-05-25T04:29:10.407Z,988.16
2019-05-25T04:30:10.331Z,988.18
2019-05-25T04:31:10.291Z,988.18
2019-05-25T04:32:10.181Z,988.19
2019-05-25T04:33:10.106Z,988.19
2019-05-25T04:34:10.030Z,988.18
2019-05-25T04:35:09.955Z,988.17
2019-05-25T04:36:09.881Z,988.18
2019-05-25T04:37:09.805Z,988.21
2019-05-25T04:38:09.730Z,988.26
2019-05-25T04:39:09.655Z,988.30
2019-05-25T04:40:09.580Z,988.27
2019-05-25T04:41:09.511Z,988.29
2019-05-25T04:42:09.429Z,988.31
2019-05-25T04:43:09.355Z,988.33
2019-05-25T04:44:09.280Z,988.32
2019-05-25T04:45:09.206Z,988.29
2019-05-25T04:46:09.130Z,988.32
2019-05-25T04:47:09.057Z,988.33
2019-05-25T04:48:08.979Z,988.30
2019-05-25T04:49:08.905Z,988.31
2019-05-25T04:50:08.839Z,988.33
2019-05-25T04:51:08.758Z,988.33
2019-05-25T04:52:08.681Z,988.30
2019-05-25T04:53:08.605Z,988.34
2019-05-25T04:54:08.529Z,988.34
2019-05-25T04:55:08.456Z,988.34
2019-05-25T04:56:08.481Z,988.36
2019-05-25T04:57:08.725Z,988.40
2019-05-25T04:58:08.231Z,988.41
2019-05-25T04:59:08.155Z,988.42
2019-05-25T05:00:08.085Z,988.38
2019-05-25T05:01:08.007Z,988.38
2019-05-25T05:02:07.932Z,988.37
2019-05-25T05:03:07.855Z,988.34
2019-05-25T05:04:07.782Z,988.36
2019-05-25T05:05:07.711Z,988.35
2019-05-25T05:06:07.637Z,988.36
2019-05-25T05:07:07.556Z,988.36
2019-05-25T05:08:07.482Z,988.34
2019-05-25T05:09:07.407Z,988.31
2019-05-25T05:10:07.338Z,988.37
2019-05-25T05:11:07.262Z,988.34
2019-05-25T05:12:07.183Z,988.31
2019-05-25T05:13:07.112Z,988.34
2019-05-25T05:14:07.032Z,988.32
2019-05-25T05:15:06.964Z,988.31
2019-05-25T05:16:06.890Z,988.35
2019-05-25T05:17:06.811Z,988.33
2019-05-25T05:18:06.734Z,988.34
2019-05-25T05:19:06.660Z,988.35
2019-05-25T05:20:06.586Z,988.30
2019-05-25T05:21:06.513Z,988.30
2019-05-25T05:22:06.440Z,988.29
2019-05-25T05:23:06.391Z,988.32
2019-05-25T05:24:06.292Z,988.34
2019-05-25T05:25:06.215Z,988.34
2019-05-25T05:26:06.197Z,988.32
2019-05-25T05:27:06.070Z,988.31
2019-05-25T05:28:05.992Z,988.33
2019-05-25T05:29:05.919Z,988.36
2019-05-25T05:30:05.843Z,988.37
2019-05-25T05:31:05.773Z,988.32
2019-05-25T05:32:05.697Z,988.36
2019-05-25T05:33:05.622Z,988.38
2019-05-25T05:34:05.548Z,988.39
2019-05-25T05:35:05.477Z,988.38
2019-05-25T05:36:05.399Z,988.41
2019-05-25T05:37:05.326Z,988.42
2019-05-25T05:38:05.250Z,988.44
2019-05-25T05:39:05.178Z,988.44
2019-05-25T05:40:05.111Z,988.46
2019-05-25T05:41:05.031Z,988.47
2019-05-25T05:42:04.956Z,988.47
2019-05-25T05:43:04.881Z,988.50
2019-05-25T05:44:04.809Z,988.50
2019-05-25T05:45:04.741Z,988.52
2019-05-25T05:46:04.660Z,988.53
2019-05-25T05:47:04.694Z,988.51
2019-05-25T05:48:04.514Z,988.54
2019-05-25T05:49:04.439Z,988.55
2019-05-25T05:50:04.366Z,988.54
2019-05-25T05:51:04.291Z,988.56
2019-05-25T05:52:04.269Z,988.54
2019-05-25T05:53:04.169Z,988.55
2019-05-25T05:54:04.069Z,988.57
2019-05-25T05:55:03.997Z,988.55
2019-05-25T05:56:03.925Z,988.60
2019-05-25T05:57:12.296Z,988.62
2019-05-25T05:58:03.773Z,988.63
2019-05-25T05:59:03.701Z,988.61
2019-05-25T06:00:03.627Z,988.63
2019-05-25T06:01:03.555Z,988.63
2019-05-25T06:02:03.508Z,988.66
2019-05-25T06:03:03.405Z,988.69
2019-05-25T06:04:03.334Z,988.74
2019-05-25T06:05:03.627Z,988.75
2019-05-25T06:06:03.184Z,988.75
2019-05-25T06:07:03.113Z,988.76
2019-05-25T06:08:03.039Z,988.78
2019-05-25T06:09:02.965Z,988.82
2019-05-25T06:10:02.893Z,988.80
2019-05-25T06:11:02.817Z,988.81
2019-05-25T06:12:02.742Z,988.82
2019-05-25T06:13:02.670Z,988.85
2019-05-25T06:14:02.598Z,988.86
2019-05-25T06:15:02.635Z,988.89
2019-05-25T06:16:02.451Z,988.88
2019-05-25T06:17:02.375Z,988.89
2019-05-25T06:18:02.406Z,988.92
2019-05-25T06:19:02.229Z,988.89
2019-05-25T06:20:02.155Z,988.89
2019-05-25T06:21:02.082Z,988.90
2019-05-25T06:22:02.018Z,988.94
2019-05-25T06:23:01.934Z,988.91
2019-05-25T06:24:01.861Z,988.92
2019-05-25T06:25:01.788Z,988.92
2019-05-25T06:26:01.713Z,988.95
2019-05-25T06:27:01.641Z,989.00
2019-05-25T06:28:01.566Z,988.96
2019-05-25T06:29:01.493Z,988.96
2019-05-25T06:30:01.418Z,989.00
2019-05-25T06:31:01.406Z,988.98
2019-05-25T06:32:01.277Z,989.04
2019-05-25T06:33:01.200Z,989.06
2019-05-25T06:34:01.127Z,989.08
2019-05-25T06:35:01.051Z,989.09
2019-05-25T06:36:00.980Z,989.13
2019-05-25T06:37:00.904Z,989.10
2019-05-25T06:38:00.831Z,989.17
2019-05-25T06:39:00.758Z,989.12
2019-05-25T06:40:00.685Z,989.15
2019-05-25T06:41:00.616Z,989.17
2019-05-25T06:42:00.537Z,989.15
2019-05-25T06:43:00.463Z,989.14
2019-05-25T06:44:00.391Z,989.13
2019-05-25T06:45:00.316Z,989.16
2019-05-25T06:46:00.243Z,989.14
2019-05-25T06:47:00.171Z,989.12
2019-05-25T06:48:00.095Z,989.13
2019-05-25T06:49:00.025Z,989.11
2019-05-25T06:49:59.949Z,989.12
2019-05-25T06:50:59.875Z,989.14
2019-05-25T06:51:59.802Z,989.10
2019-05-25T06:52:59.734Z,989.10
2019-05-25T06:53:59.653Z,989.12
2019-05-25T06:54:59.580Z,989.13
2019-05-25T06:55:59.508Z,989.13
2019-05-25T06:56:59.435Z,989.15
2019-05-25T06:57:59.362Z,989.18
2019-05-25T06:58:59.391Z,989.18
2019-05-25T06:59:59.213Z,989.22
2019-05-25T07:00:59.141Z,989.22
2019-05-25T07:01:59.066Z,989.21
2019-05-25T07:02:58.993Z,989.23
2019-05-25T07:03:58.920Z,989.25
2019-05-25T07:04:58.846Z,989.30
2019-05-25T07:05:58.775Z,989.32
2019-05-25T07:06:58.699Z,989.28
2019-05-25T07:07:58.626Z,989.36
2019-05-25T07:08:58.555Z,989.35
2019-05-25T07:09:58.480Z,989.34
2019-05-25T07:10:58.407Z,989.35
2019-05-25T07:11:58.334Z,989.39
2019-05-25T07:12:58.259Z,989.40
2019-05-25T07:13:58.186Z,989.36
2019-05-25T07:14:58.136Z,989.38
2019-05-25T07:15:58.041Z,989.42
2019-05-25T07:16:57.968Z,989.38
2019-05-25T07:17:57.898Z,989.40
2019-05-25T07:18:57.920Z,989.36
2019-05-25T07:19:57.749Z,989.40
2019-05-25T07:20:57.677Z,989.42
2019-05-25T07:21:57.602Z,989.38
2019-05-25T07:22:57.528Z,989.41
2019-05-25T07:23:57.456Z,989.40
2019-05-25T07:24:57.383Z,989.37
2019-05-25T07:25:57.311Z,989.39
2019-05-25T07:26:57.240Z,989.38
2019-05-25T07:28:00.160Z,989.37
2019-05-25T07:28:57.093Z,989.36
2019-05-25T07:29:57.020Z,989.34
2019-05-25T07:30:56.948Z,989.34
2019-05-25T07:31:56.875Z,989.38
2019-05-25T07:32:56.847Z,989.38
2019-05-25T07:33:56.731Z,989.40
2019-05-25T07:34:56.659Z,989.41
2019-05-25T07:35:56.588Z,989.42
2019-05-25T07:36:56.512Z,989.46
2019-05-25T07:37:56.444Z,989.48
2019-05-25T07:38:56.368Z,989.52
2019-05-25T07:39:56.296Z,989.49
2019-05-25T07:40:56.225Z,989.47
2019-05-25T07:41:56.157Z,989.50
2019-05-25T07:42:56.080Z,989.48
2019-05-25T07:43:56.008Z,989.52
2019-05-25T07:44:55.935Z,989.53
2019-05-25T07:45:55.865Z,989.52
2019-05-25T07:46:55.793Z,989.52
2019-05-25T07:47:55.737Z,989.51
2019-05-25T07:48:55.648Z,989.49
2019-05-25T07:49:55.575Z,989.49
2019-05-25T07:50:55.503Z,989.47
2019-05-25T07:51:55.433Z,989.47
2019-05-25T07:52:55.359Z,989.46
2019-05-25T07:53:55.287Z,989.47
2019-05-25T07:54:55.216Z,989.48
2019-05-25T07:55:55.143Z,989.49
2019-05-25T07:56:55.070Z,989.49
2019-05-25T07:57:54.998Z,989.48
2019-05-25T07:58:54.925Z,989.52
2019-05-25T07:59:54.855Z,989.54
2019-05-25T08:00:54.782Z,989.58
2019-05-25T08:01:54.709Z,989.58
2019-05-25T08:02:54.638Z,989.55
2019-05-25T08:03:54.567Z,989.55
2019-05-25T08:04:54.493Z,989.58
2019-05-25T08:05:54.421Z,989.60
2019-05-25T08:06:54.442Z,989.59
2019-05-25T08:07:54.279Z,989.58
2019-05-25T08:08:54.205Z,989.61
2019-05-25T08:09:54.139Z,989.58
2019-05-25T08:10:54.063Z,989.56
2019-05-25T08:11:53.990Z,989.58
2019-05-25T08:12:53.922Z,989.55
2019-05-25T08:13:53.843Z,989.56
2019-05-25T08:14:53.773Z,989.54
2019-05-25T08:15:53.701Z,989.58
2019-05-25T08:16:53.628Z,989.56
2019-05-25T08:17:53.556Z,989.53
2019-05-25T08:18:53.483Z,989.55
2019-05-25T08:19:53.411Z,989.60
2019-05-25T08:20:53.340Z,989.59
2019-05-25T08:21:53.266Z,989.58
2019-05-25T08:22:53.195Z,989.57
2019-05-25T08:23:53.127Z,989.59
2019-05-25T08:24:53.052Z,989.55
2019-05-25T08:25:52.978Z,989.61
2019-05-25T08:26:52.906Z,989.61
2019-05-25T08:27:52.835Z,989.59
2019-05-25T08:28:52.768Z,989.61
2019-05-25T08:29:52.689Z,989.62
2019-05-25T08:30:52.620Z,989.63
2019-05-25T08:31:52.545Z,989.60
2019-05-25T08:32:52.473Z,989.63
2019-05-25T08:33:52.399Z,989.63
2019-05-25T08:34:52.330Z,989.70
2019-05-25T08:35:52.257Z,989.72
2019-05-25T08:36:52.184Z,989.71
2019-05-25T08:37:52.112Z,989.73
2019-05-25T08:38:54.820Z,989.65
2019-05-25T08:39:51.968Z,989.64
2019-05-25T08:40:51.895Z,989.66
2019-05-25T08:41:51.822Z,989.68
2019-05-25T08:42:51.754Z,989.68
2019-05-25T08:43:51.678Z,989.66
2019-05-25T08:44:51.607Z,989.63
2019-05-25T08:45:51.535Z,989.61
2019-05-25T08:46:51.462Z,989.64
2019-05-25T08:47:51.499Z,989.64
2019-05-25T08:48:51.320Z,989.60
2019-05-25T08:49:51.247Z,989.55
2019-05-25T08:50:51.174Z,989.53
2019-05-25T08:51:51.103Z,989.57
2019-05-25T08:52:51.030Z,989.58
2019-05-25T08:53:50.965Z,989.58
2019-05-25T08:54:50.886Z,989.56
2019-05-25T08:55:50.831Z,989.58
2019-05-25T08:56:50.790Z,989.61
2019-05-25T08:57:50.670Z,989.61
2019-05-25T08:58:50.597Z,989.60
2019-05-25T08:59:50.527Z,989.62
2019-05-25T09:00:50.458Z,989.60
2019-05-25T09:01:50.478Z,989.60
2019-05-25T09:02:50.310Z,989.64
2019-05-25T09:03:50.239Z,989.65
2019-05-25T09:04:50.166Z,989.65
2019-05-25T09:05:50.093Z,989.65
2019-05-25T09:06:50.025Z,989.63
2019-05-25T09:07:49.951Z,989.65
2019-05-25T09:08:49.879Z,989.67
2019-05-25T09:09:49.807Z,989.70
2019-05-25T09:10:49.736Z,989.69
2019-05-25T09:11:49.664Z,989.70
2019-05-25T09:12:49.638Z,989.69
2019-05-25T09:13:49.573Z,989.76
2019-05-25T09:14:49.452Z,989.74
2019-05-25T09:15:49.381Z,989.71
2019-05-25T09:16:49.306Z,989.73
2019-05-25T09:17:49.235Z,989.70
2019-05-25T09:18:49.280Z,989.71
2019-05-25T09:19:49.092Z,989.77
2019-05-25T09:20:49.024Z,989.74
2019-05-25T09:22:02.225Z,989.77
2019-05-25T09:22:48.879Z,989.76
2019-05-25T09:23:49.035Z,989.77
2019-05-25T09:24:48.738Z,989.81
2019-05-25T09:25:48.664Z,989.78
2019-05-25T09:26:48.595Z,989.80
2019-05-25T09:27:48.526Z,989.80
2019-05-25T09:29:03.128Z,989.74
2019-05-25T09:29:48.380Z,989.72
2019-05-25T09:30:48.311Z,989.76
2019-05-25T09:31:48.240Z,989.75
2019-05-25T09:32:48.168Z,989.75
2019-05-25T09:33:48.096Z,989.74
2019-05-25T09:34:48.032Z,989.77
2019-05-25T09:35:47.954Z,989.79
2019-05-25T09:36:47.885Z,989.76
2019-05-25T09:37:47.812Z,989.78
2019-05-25T09:38:47.742Z,989.74
2019-05-25T09:39:47.681Z,989.71
2019-05-25T09:40:47.599Z,989.75
2019-05-25T09:41:47.535Z,989.75
2019-05-25T09:42:47.474Z,989.75
2019-05-25T09:43:47.588Z,989.77
2019-05-25T09:44:47.324Z,989.79
2019-05-25T09:45:47.244Z,989.77
2019-05-25T09:46:47.175Z,989.79
2019-05-25T09:47:47.103Z,989.77
2019-05-25T09:48:47.033Z,989.79
2019-05-25T09:49:46.960Z,989.74
2019-05-25T09:50:46.891Z,989.75
2019-05-25T09:51:48.705Z,989.78
2019-05-25T09:52:46.751Z,989.74
2019-05-25T09:53:46.678Z,989.75
2019-05-25T09:54:46.608Z,989.71
2019-05-25T09:55:46.543Z,989.75
2019-05-25T09:56:46.471Z,989.74
2019-05-25T09:57:46.396Z,989.72
2019-05-25T09:59:28.916Z,989.74
2019-05-25T10:00:28.752Z,989.67
2019-05-25T10:01:28.682Z,989.73
2019-05-25T10:02:28.606Z,989.71
2019-05-25T10:03:28.532Z,989.72
2019-05-25T10:04:28.463Z,989.70
2019-05-25T10:05:28.391Z,989.68
2019-05-25T10:06:28.319Z,989.71
2019-05-25T10:07:28.249Z,989.69
2019-05-25T10:08:28.177Z,989.71
2019-05-25T10:09:28.106Z,989.71
2019-05-25T10:10:28.034Z,989.72
2019-05-25T10:11:27.964Z,989.68
2019-05-25T10:12:27.892Z,989.70
2019-05-25T10:13:27.822Z,989.66
2019-05-25T10:14:27.749Z,989.66
2019-05-25T10:15:28.458Z,989.71
2019-05-25T10:16:27.608Z,989.71
2019-05-25T10:17:27.534Z,989.68
2019-05-25T10:19:27.396Z,989.63
2019-05-25T10:20:27.320Z,989.68
2019-05-25T10:21:27.250Z,989.67
2019-05-25T10:22:27.178Z,989.70
2019-05-25T10:23:27.136Z,989.70
2019-05-25T10:24:27.037Z,989.69
2019-05-25T10:25:26.965Z,989.66
2019-05-25T10:26:26.895Z,989.66
2019-05-25T10:27:26.825Z,989.69
2019-05-25T10:28:26.754Z,989.68
2019-05-25T10:29:36.472Z,989.67
2019-05-25T10:30:26.613Z,989.66
2019-05-25T10:31:26.542Z,989.68
2019-05-25T10:32:26.502Z,989.65
2019-05-25T10:33:26.404Z,989.64
2019-05-25T10:34:26.335Z,989.57
2019-05-25T10:35:26.263Z,989.57
2019-05-25T10:36:26.292Z,989.55
2019-05-25T10:37:26.123Z,989.50
2019-05-25T10:38:26.051Z,989.52
2019-05-25T10:39:25.981Z,989.49
2019-05-25T10:40:25.910Z,989.52
2019-05-25T10:41:25.842Z,989.47
2019-05-25T10:42:25.767Z,989.47
2019-05-25T10:43:25.699Z,989.41
2019-05-25T10:44:25.690Z,989.40
2019-05-25T10:45:25.603Z,989.42
2019-05-25T10:46:25.492Z,989.42
2019-05-25T10:47:25.413Z,989.42
2019-05-25T10:48:25.341Z,989.42
2019-05-25T10:49:25.272Z,989.47
2019-05-25T10:50:25.200Z,989.47
2019-05-25T10:51:25.129Z,989.42
2019-05-25T10:52:25.059Z,989.43
2019-05-25T10:53:24.988Z,989.45
2019-05-25T10:54:24.917Z,989.44
2019-05-25T10:55:24.846Z,989.40
2019-05-25T10:56:24.776Z,989.39
2019-05-25T10:57:24.706Z,989.37
2019-05-25T10:58:24.633Z,989.35
2019-05-25T10:59:24.563Z,989.35
2019-05-25T11:00:27.176Z,989.32
2019-05-25T11:01:24.429Z,989.33
2019-05-25T11:02:24.357Z,989.32
2019-05-25T11:03:24.280Z,989.27
2019-05-25T11:04:24.212Z,989.27
2019-05-25T11:05:24.141Z,989.21
2019-05-25T11:06:24.069Z,989.26
2019-05-25T11:07:24.000Z,989.27
2019-05-25T11:08:23.931Z,989.24
2019-05-25T11:09:23.860Z,989.26
2019-05-25T11:10:23.790Z,989.29
2019-05-25T11:11:23.721Z,989.33
2019-05-25T11:12:26.023Z,989.26
2019-05-25T11:13:23.581Z,989.23
2019-05-25T11:14:23.527Z,989.21
2019-05-25T11:15:23.446Z,989.29
2019-05-25T11:16:23.374Z,989.35
2019-05-25T11:17:23.305Z,989.25
2019-05-25T11:18:23.262Z,989.21
2019-05-25T11:19:24.312Z,989.16
2019-05-25T11:20:23.100Z,989.21
2019-05-25T11:21:23.043Z,989.15
2019-05-25T11:22:22.970Z,989.09
2019-05-25T11:23:22.911Z,989.16
2019-05-25T11:24:22.827Z,989.17
2019-05-25T11:25:22.759Z,989.19
2019-05-25T11:26:22.690Z,989.16
2019-05-25T11:27:22.624Z,989.14
2019-05-25T11:28:22.556Z,989.11
2019-05-25T11:29:22.487Z,989.14
2019-05-25T11:30:22.420Z,989.14
2019-05-25T11:31:22.350Z,989.14
2019-05-25T11:32:22.283Z,989.15
2019-05-25T11:33:22.215Z,989.17
2019-05-25T11:34:22.155Z,989.14
2019-05-25T11:35:22.079Z,989.17
2019-05-25T11:36:22.010Z,988.95
2019-05-25T11:38:04.433Z,988.83
2019-05-25T11:39:06.988Z,989.06
2019-05-25T11:40:04.301Z,989.19
2019-05-25T11:41:05.446Z,989.22
2019-05-25T11:42:04.164Z,989.23
2019-05-25T11:43:04.100Z,989.24
2019-05-25T11:45:03.964Z,989.21
2019-05-25T11:46:03.898Z,989.25
2019-05-25T11:47:04.513Z,989.25
2019-05-25T11:48:03.770Z,989.22
2019-05-25T11:49:03.704Z,989.23
2019-05-25T11:50:03.637Z,989.28
2019-05-25T11:52:03.511Z,989.36
2019-05-25T11:53:06.288Z,989.35
2019-05-25T11:54:03.385Z,989.34
2019-05-25T11:55:03.417Z,989.35
2019-05-25T11:56:03.254Z,989.39
2019-05-25T11:57:03.189Z,989.42
2019-05-25T11:58:03.161Z,989.49
2019-05-25T11:59:03.064Z,989.48
2019-05-25T12:00:05.625Z,989.46
2019-05-25T12:01:02.942Z,989.41
2019-05-25T12:02:50.378Z,989.16
2019-05-25T12:03:50.317Z,989.64
2019-05-25T12:04:50.256Z,989.66
2019-05-25T12:05:50.193Z,989.10
2019-05-25T12:06:50.138Z,989.08
2019-05-25T12:07:50.072Z,989.38
2019-05-25T12:08:50.011Z,989.33
2019-05-25T12:09:49.949Z,989.26
2019-05-25T12:10:49.916Z,989.23
2019-05-25T12:11:49.827Z,989.05
2019-05-25T12:12:49.766Z,989.21
2019-05-25T12:13:49.703Z,989.37
2019-05-25T12:14:49.643Z,989.10
2019-05-25T12:15:49.783Z,989.43
2019-05-25T12:16:49.518Z,989.53
2019-05-25T12:17:49.456Z,989.58
2019-05-25T12:18:49.394Z,989.62
2019-05-25T12:19:49.332Z,989.63
2019-05-25T12:20:49.266Z,989.64
2019-05-25T12:21:49.205Z,989.64
2019-05-25T12:22:49.142Z,989.74
2019-05-25T12:23:49.109Z,989.77
2019-05-25T12:24:49.018Z,989.68
2019-05-25T12:25:48.966Z,989.77
2019-05-25T12:27:49.707Z,989.77
2019-05-25T12:28:48.768Z,989.70
2019-05-25T12:29:48.714Z,989.73
2019-05-25T12:31:31.140Z,989.71
2019-05-25T12:32:31.081Z,989.58
2019-05-25T12:33:31.021Z,989.42
2019-05-25T12:34:30.959Z,989.46